createdAt,value
2023-08-11T00:00:22.901Z,10.20
2023-08-11T00:02:53.357Z,12.70
2023-08-11T00:05:20.724Z,10.30
2023-08-11T00:07:52.194Z,11.00
2023-08-11T00:10:20.904Z,11.60
2023-08-11T00:12:48.639Z,12.90
2023-08-11T00:15:15.290Z,10.70
2023-08-11T00:17:42.191Z,10.80
2023-08-11T00:20:10.007Z,10.50
2023-08-11T00:22:39.151Z,11.80
2023-08-11T00:25:06.877Z,12.20
2023-08-11T00:27:33.555Z,8.70
2023-08-11T00:30:00.344Z,11.30
2023-08-11T00:32:27.057Z,11.20
2023-08-11T00:34:53.753Z,9.60
2023-08-11T00:37:20.351Z,9.20
2023-08-11T00:39:47.094Z,8.90
2023-08-11T00:42:14.108Z,9.80
2023-08-11T00:44:40.955Z,9.00
2023-08-11T00:47:08.737Z,9.80
2023-08-11T00:49:36.054Z,10.00
2023-08-11T00:52:04.552Z,7.10
2023-08-11T00:54:31.578Z,9.70
2023-08-11T00:56:58.391Z,9.00
2023-08-11T00:59:26.662Z,8.30
2023-08-11T01:01:53.401Z,7.60
2023-08-11T01:04:21.856Z,7.90
2023-08-11T01:07:17.374Z,9.80
2023-08-11T01:09:54.723Z,8.10
2023-08-11T01:12:32.344Z,8.70
2023-08-11T01:15:08.203Z,8.70
2023-08-11T01:17:36.566Z,7.60
2023-08-11T01:20:09.701Z,10.10
2023-08-11T01:22:38.061Z,7.60
2023-08-11T01:25:06.998Z,10.20
2023-08-11T01:27:37.635Z,10.50
2023-08-11T01:30:07.321Z,11.10
2023-08-11T01:32:33.981Z,8.10
2023-08-11T01:35:00.808Z,8.10
2023-08-11T01:37:27.746Z,7.50
2023-08-11T01:39:54.524Z,8.00
2023-08-11T01:42:21.769Z,8.40
2023-08-11T01:44:49.516Z,7.20
2023-08-11T01:47:18.154Z,7.70
2023-08-11T01:49:45.683Z,9.90
2023-08-11T01:52:13.286Z,8.90
2023-08-11T01:54:43.684Z,8.90
2023-08-11T01:57:10.901Z,9.80
2023-08-11T01:59:37.519Z,10.60
2023-08-11T02:02:04.315Z,8.30
2023-08-11T02:04:30.975Z,10.10
2023-08-11T02:06:57.582Z,10.10
2023-08-11T02:09:24.192Z,9.30
2023-08-11T02:11:50.741Z,8.90
2023-08-11T02:14:17.387Z,7.90
2023-08-11T02:16:57.096Z,8.10
2023-08-11T02:19:23.671Z,8.90
2023-08-11T02:21:51.634Z,8.30
2023-08-11T02:24:18.263Z,7.30
2023-08-11T02:26:44.947Z,7.80
2023-08-11T02:29:11.576Z,9.20
2023-08-11T02:31:38.216Z,6.70
2023-08-11T02:34:04.894Z,8.70
2023-08-11T02:36:31.582Z,8.00
2023-08-11T02:38:58.241Z,10.10
2023-08-11T02:41:25.097Z,9.70
2023-08-11T02:43:51.728Z,7.90
2023-08-11T02:46:18.349Z,7.50
2023-08-11T02:48:44.972Z,10.90
2023-08-11T02:51:11.518Z,9.20
2023-08-11T02:53:38.114Z,9.50
2023-08-11T02:56:07.949Z,10.00
2023-08-11T03:01:02.019Z,12.00
2023-08-11T03:03:29.964Z,9.40
2023-08-11T03:05:59.223Z,9.70
2023-08-11T03:08:26.226Z,7.60
2023-08-11T03:10:57.228Z,8.10
2023-08-11T03:13:30.269Z,7.50
2023-08-11T03:15:57.565Z,6.40
2023-08-11T03:18:27.671Z,7.50
2023-08-11T03:21:00.485Z,7.20
2023-08-11T03:23:33.324Z,10.50
2023-08-11T03:25:59.921Z,9.60
2023-08-11T03:28:28.272Z,8.90
2023-08-11T03:30:55.956Z,8.10
2023-08-11T03:33:22.612Z,8.50
2023-08-11T03:35:53.734Z,11.20
2023-08-11T03:38:20.429Z,20.10
2023-08-11T03:40:48.226Z,12.50
2023-08-11T03:43:14.955Z,11.00
2023-08-11T03:45:41.944Z,10.40
2023-08-11T03:48:11.777Z,7.70
2023-08-11T03:50:38.377Z,9.40
2023-08-11T03:53:04.979Z,7.90
2023-08-11T03:55:31.790Z,9.50
2023-08-11T03:57:58.483Z,9.20
2023-08-11T04:00:26.260Z,8.80
2023-08-11T04:03:04.828Z,10.00
2023-08-11T04:05:31.680Z,11.80
2023-08-11T04:07:58.341Z,11.50
2023-08-11T04:10:25.669Z,9.90
2023-08-11T04:12:52.567Z,11.70
2023-08-11T04:15:19.671Z,13.10
2023-08-11T04:17:46.283Z,16.30
2023-08-11T04:20:14.593Z,11.90
2023-08-11T04:22:42.282Z,12.10
2023-08-11T04:25:11.703Z,8.90
2023-08-11T04:27:41.664Z,9.80
2023-08-11T04:30:11.263Z,7.80
2023-08-11T04:32:38.990Z,9.20
2023-08-11T04:35:09.500Z,9.10
2023-08-11T04:37:37.757Z,10.40
2023-08-11T04:40:09.784Z,9.20
2023-08-11T04:42:36.478Z,8.00
2023-08-11T04:45:03.569Z,11.80
2023-08-11T04:47:31.260Z,11.90
2023-08-11T04:49:58.754Z,9.30
2023-08-11T04:52:25.408Z,9.70
2023-08-11T04:54:52.157Z,9.80
2023-08-11T04:57:18.783Z,9.60
2023-08-11T04:59:46.901Z,8.70
2023-08-11T05:02:14.323Z,8.90
2023-08-11T05:04:41.320Z,9.80
2023-08-11T05:07:08.378Z,10.90
2023-08-11T05:09:38.781Z,11.60
2023-08-11T05:12:06.160Z,10.60
2023-08-11T05:14:33.133Z,8.40
2023-08-11T05:17:02.216Z,12.80
2023-08-11T05:19:30.597Z,13.60
2023-08-11T05:21:57.213Z,10.20
2023-08-11T05:24:23.814Z,15.50
2023-08-11T05:26:50.441Z,12.50
2023-08-11T05:29:17.029Z,10.10
2023-08-11T05:31:44.021Z,9.50
2023-08-11T05:34:11.017Z,10.20
2023-08-11T05:36:38.160Z,10.00
2023-08-11T05:39:05.055Z,11.90
2023-08-11T05:41:31.826Z,8.00
2023-08-11T05:43:58.488Z,10.80
2023-08-11T05:46:25.220Z,8.40
2023-08-11T05:48:52.418Z,8.50
2023-08-11T05:51:19.181Z,8.30
2023-08-11T05:53:45.965Z,9.00
2023-08-11T05:56:12.580Z,10.40
2023-08-11T05:58:39.252Z,8.00
2023-08-11T06:01:05.979Z,10.00
2023-08-11T06:03:32.760Z,7.80
2023-08-11T06:06:02.056Z,11.70
2023-08-11T06:08:29.564Z,7.40
2023-08-11T06:10:56.720Z,6.20
2023-08-11T06:13:26.391Z,10.60
2023-08-11T06:15:53.140Z,7.90
2023-08-11T06:18:19.851Z,12.50
2023-08-11T06:20:48.517Z,6.80
2023-08-11T06:23:15.245Z,7.40
2023-08-11T06:25:43.057Z,8.40
2023-08-11T06:28:10.132Z,7.20
2023-08-11T06:30:36.854Z,9.50
2023-08-11T06:33:03.885Z,6.40
2023-08-11T06:35:31.424Z,10.20
2023-08-11T06:37:58.452Z,8.40
2023-08-11T06:40:25.181Z,7.40
2023-08-11T06:42:51.853Z,7.60
2023-08-11T06:45:19.688Z,7.80
2023-08-11T06:47:46.463Z,10.40
2023-08-11T06:50:14.425Z,8.50
2023-08-11T06:52:41.144Z,7.40
2023-08-11T06:55:08.087Z,9.00
2023-08-11T06:57:34.833Z,6.60
2023-08-11T07:00:01.622Z,9.20
2023-08-11T07:02:28.393Z,4.50
2023-08-11T07:04:55.045Z,4.60
2023-08-11T07:07:21.734Z,4.20
2023-08-11T07:09:48.384Z,3.50
2023-08-11T07:12:14.979Z,5.30
2023-08-11T07:14:43.742Z,5.50
2023-08-11T07:17:12.039Z,3.40
2023-08-11T07:19:39.082Z,4.60
2023-08-11T07:22:05.764Z,4.60
2023-08-11T07:24:32.494Z,6.40
2023-08-11T07:26:59.103Z,4.50
2023-08-11T07:29:25.744Z,3.70
2023-08-11T07:31:52.371Z,4.30
2023-08-11T07:34:19.363Z,3.60
2023-08-11T07:36:46.001Z,4.30
2023-08-11T07:39:22.890Z,2.70
2023-08-11T07:41:51.654Z,4.30
2023-08-11T07:44:18.483Z,5.60
2023-08-11T07:46:45.355Z,6.00
2023-08-11T07:49:12.187Z,5.80
2023-08-11T07:51:41.049Z,4.50
2023-08-11T07:54:07.932Z,2.50
2023-08-11T07:56:35.134Z,2.80
2023-08-11T07:59:02.027Z,2.60
2023-08-11T08:01:29.162Z,2.70
2023-08-11T08:03:57.546Z,4.40
2023-08-11T08:06:25.103Z,4.10
2023-08-11T08:08:51.768Z,3.60
2023-08-11T08:11:18.549Z,2.40
2023-08-11T08:13:45.316Z,2.90
2023-08-11T08:16:12.058Z,3.10
2023-08-11T08:18:38.721Z,2.80
2023-08-11T08:21:05.381Z,3.40
2023-08-11T08:23:31.984Z,2.20
2023-08-11T08:25:59.192Z,2.10
2023-08-11T08:28:26.120Z,2.60
2023-08-11T08:30:53.252Z,2.80
2023-08-11T08:33:19.900Z,2.20
2023-08-11T08:35:47.664Z,2.50
2023-08-11T08:38:14.274Z,1.70
2023-08-11T08:40:41.073Z,2.40
2023-08-11T08:43:09.937Z,3.10
2023-08-11T08:45:38.647Z,3.20
2023-08-11T08:48:14.411Z,2.80
2023-08-11T08:50:41.025Z,2.40
2023-08-11T08:53:07.826Z,2.20
2023-08-11T08:55:34.684Z,1.30
2023-08-11T08:58:03.159Z,1.90
2023-08-11T09:00:29.891Z,1.40
2023-08-11T09:02:58.575Z,2.80
2023-08-11T09:05:26.565Z,2.50
2023-08-11T09:07:53.927Z,2.80
2023-08-11T09:10:20.634Z,3.90
2023-08-11T09:12:49.518Z,4.00
2023-08-11T09:15:16.555Z,1.90
2023-08-11T09:17:43.566Z,2.20
2023-08-11T09:20:13.977Z,1.30
2023-08-11T09:22:41.619Z,2.60
2023-08-11T09:25:09.031Z,1.50
2023-08-11T09:27:35.822Z,2.20
2023-08-11T09:30:02.512Z,1.20
2023-08-11T09:32:33.353Z,1.70
2023-08-11T09:35:14.014Z,3.00
2023-08-11T09:37:44.945Z,1.00
2023-08-11T09:40:12.717Z,1.40
2023-08-11T09:42:39.735Z,2.00
2023-08-11T09:45:07.344Z,1.60
2023-08-11T09:47:36.834Z,3.80
2023-08-11T09:50:04.744Z,1.70
2023-08-11T09:52:36.484Z,2.50
2023-08-11T09:55:07.507Z,1.90
2023-08-11T09:57:38.487Z,1.90
2023-08-11T10:00:07.304Z,1.10
2023-08-11T10:02:37.177Z,1.60
2023-08-11T10:05:08.015Z,1.70
2023-08-11T10:07:40.348Z,2.50
2023-08-11T10:10:19.116Z,2.20
2023-08-11T10:12:53.801Z,1.50
2023-08-11T10:15:23.654Z,3.20
2023-08-11T10:17:51.134Z,1.80
2023-08-11T10:20:18.149Z,4.80
2023-08-11T10:22:44.936Z,2.80
2023-08-11T10:25:12.457Z,2.60
2023-08-11T10:27:40.627Z,2.40
2023-08-11T10:30:09.304Z,3.20
2023-08-11T10:32:36.485Z,2.20
2023-08-11T10:35:07.687Z,3.40
2023-08-11T10:37:34.983Z,3.60
2023-08-11T10:40:06.440Z,4.10
2023-08-11T10:42:33.547Z,5.90
2023-08-11T10:45:11.550Z,3.20
2023-08-11T10:47:40.148Z,2.60
2023-08-11T10:50:10.400Z,5.10
2023-08-11T10:52:37.204Z,1.50
2023-08-11T10:55:04.300Z,3.90
2023-08-11T10:57:35.471Z,2.70
2023-08-11T11:00:02.133Z,1.50
2023-08-11T11:02:30.866Z,1.70
2023-08-11T11:04:58.522Z,1.80
2023-08-11T11:07:26.151Z,2.20
2023-08-11T11:09:53.353Z,1.50
2023-08-11T11:12:20.921Z,2.60
2023-08-11T11:14:47.700Z,2.30
2023-08-11T11:17:14.393Z,2.10
2023-08-11T11:19:41.516Z,1.90
2023-08-11T11:22:09.393Z,2.20
2023-08-11T11:24:38.546Z,1.30
2023-08-11T11:27:05.923Z,1.40
2023-08-11T11:29:33.224Z,2.90
2023-08-11T11:32:07.697Z,1.30
2023-08-11T11:34:38.633Z,1.60
2023-08-11T11:37:05.482Z,6.50
2023-08-11T11:39:33.246Z,1.10
2023-08-11T11:42:07.922Z,3.00
2023-08-11T11:44:35.830Z,3.60
2023-08-11T11:47:06.281Z,2.90
2023-08-11T11:49:33.088Z,1.30
2023-08-11T11:52:01.692Z,4.60
2023-08-11T11:54:30.174Z,3.20
2023-08-11T11:57:04.901Z,3.40
2023-08-11T11:59:33.959Z,4.40
2023-08-11T12:02:04.877Z,2.20
2023-08-11T12:04:32.319Z,2.40
2023-08-11T12:06:59.171Z,2.40
2023-08-11T12:09:25.918Z,2.00
2023-08-11T12:11:55.303Z,2.60
2023-08-11T12:16:48.648Z,2.10
2023-08-11T12:19:15.952Z,2.50
2023-08-11T12:21:43.959Z,4.70
2023-08-11T12:24:15.618Z,2.10
2023-08-11T12:26:42.428Z,4.70
2023-08-11T12:29:09.193Z,2.60
2023-08-11T12:31:35.852Z,1.80
2023-08-11T12:34:02.593Z,4.00
2023-08-11T12:36:29.622Z,3.20
2023-08-11T12:38:56.772Z,2.00
2023-08-11T12:41:24.654Z,1.50
2023-08-11T12:43:51.339Z,3.00
2023-08-11T12:46:18.019Z,1.50
2023-08-11T12:48:44.927Z,1.40
2023-08-11T12:51:11.798Z,1.90
2023-08-11T12:53:38.465Z,3.20
2023-08-11T12:56:05.590Z,2.40
2023-08-11T12:58:32.620Z,3.00
2023-08-11T13:00:59.278Z,4.40
2023-08-11T13:03:27.402Z,2.80
2023-08-11T13:05:54.166Z,1.30
2023-08-11T13:08:20.884Z,1.40
2023-08-11T13:10:47.604Z,1.70
2023-08-11T13:13:14.362Z,5.00
2023-08-11T13:15:41.401Z,1.40
2023-08-11T13:18:08.120Z,2.00
2023-08-11T13:20:34.861Z,3.50
2023-08-11T13:23:01.621Z,1.60
2023-08-11T13:25:28.387Z,3.80
2023-08-11T13:27:55.194Z,3.20
2023-08-11T13:30:23.061Z,1.40
2023-08-11T13:32:49.812Z,1.60
2023-08-11T13:35:16.607Z,2.60
2023-08-11T13:37:43.434Z,2.60
2023-08-11T13:40:10.891Z,2.80
2023-08-11T13:42:38.573Z,4.90
2023-08-11T13:45:08.111Z,3.30
2023-08-11T13:47:35.400Z,2.20
2023-08-11T13:50:02.426Z,2.00
2023-08-11T13:52:29.161Z,4.60
2023-08-11T13:55:04.158Z,3.10
2023-08-11T13:57:31.077Z,8.20
2023-08-11T13:59:59.605Z,2.70
2023-08-11T14:02:28.044Z,11.00
2023-08-11T14:04:55.688Z,2.20
2023-08-11T14:07:31.750Z,2.40
2023-08-11T14:10:00.767Z,2.90
2023-08-11T14:12:27.670Z,2.50
2023-08-11T14:14:54.640Z,4.00
2023-08-11T14:17:21.352Z,1.80
2023-08-11T14:19:48.095Z,2.20
2023-08-11T14:22:15.094Z,5.90
2023-08-11T14:24:42.141Z,2.30
2023-08-11T14:27:08.847Z,5.00
2023-08-11T14:29:35.699Z,5.10
2023-08-11T14:32:18.285Z,5.80
2023-08-11T14:34:49.435Z,21.40
2023-08-11T14:37:17.588Z,28.00
2023-08-11T14:39:46.022Z,26.20
2023-08-11T14:42:15.140Z,4.90
2023-08-11T14:44:42.889Z,4.00
2023-08-11T14:47:14.503Z,6.20
2023-08-11T14:49:42.671Z,4.70
2023-08-11T14:52:09.985Z,27.10
2023-08-11T14:54:37.399Z,34.00
2023-08-11T14:57:04.754Z,30.40
2023-08-11T14:59:32.735Z,23.80
2023-08-11T15:01:59.626Z,13.60
2023-08-11T15:04:27.945Z,13.10
2023-08-11T15:06:54.908Z,20.10
2023-08-11T15:09:21.723Z,10.80
2023-08-11T15:11:49.388Z,14.60
2023-08-11T15:14:16.990Z,10.40
2023-08-11T15:16:43.766Z,9.80
2023-08-11T15:19:10.728Z,9.70
2023-08-11T15:21:37.725Z,5.30
2023-08-11T15:24:04.799Z,5.20
2023-08-11T15:26:31.477Z,4.90
2023-08-11T15:29:00.749Z,6.40
2023-08-11T15:31:27.938Z,3.30
2023-08-11T15:33:54.769Z,6.20
2023-08-11T15:36:21.754Z,3.80
2023-08-11T15:38:50.447Z,5.40
2023-08-11T15:41:17.772Z,2.40
2023-08-11T15:43:44.441Z,6.00
2023-08-11T15:46:11.602Z,4.30
2023-08-11T15:48:38.317Z,3.00
2023-08-11T15:51:05.261Z,3.90
2023-08-11T15:53:31.954Z,7.20
2023-08-11T15:55:58.645Z,4.90
2023-08-11T15:58:25.293Z,2.90
2023-08-11T16:00:52.371Z,13.20
2023-08-11T16:03:21.398Z,6.20
2023-08-11T16:05:49.163Z,3.20
2023-08-11T16:08:15.998Z,3.50
2023-08-11T16:10:43.461Z,3.90
2023-08-11T16:13:13.082Z,4.20
2023-08-11T16:15:39.933Z,8.90
2023-08-11T16:18:10.703Z,6.90
2023-08-11T16:20:40.109Z,9.90
2023-08-11T16:23:08.009Z,19.20
2023-08-11T16:25:34.731Z,8.00
2023-08-11T16:28:01.440Z,4.90
2023-08-11T16:30:28.438Z,5.10
2023-08-11T16:32:58.443Z,5.50
2023-08-11T16:35:25.372Z,4.20
2023-08-11T16:37:52.169Z,3.10
2023-08-11T16:40:18.832Z,6.60
2023-08-11T16:42:45.493Z,2.80
2023-08-11T16:45:12.210Z,4.10
2023-08-11T16:47:39.031Z,4.50
2023-08-11T16:50:06.353Z,2.30
2023-08-11T16:52:33.096Z,5.80
2023-08-11T16:54:59.948Z,3.10
2023-08-11T16:57:26.554Z,3.70
2023-08-11T16:59:53.232Z,3.80
2023-08-11T17:02:20.122Z,3.00
2023-08-11T17:04:47.227Z,2.10
2023-08-11T17:07:13.901Z,3.20
2023-08-11T17:09:40.594Z,3.30
2023-08-11T17:12:08.144Z,2.20
2023-08-11T17:14:35.277Z,3.50
2023-08-11T17:17:01.956Z,3.50
2023-08-11T17:19:28.797Z,5.70
2023-08-11T17:21:58.358Z,2.10
2023-08-11T17:24:25.039Z,5.20
2023-08-11T17:26:52.497Z,2.70
2023-08-11T17:29:19.143Z,4.60
2023-08-11T17:31:45.902Z,2.20
2023-08-11T17:34:12.554Z,4.20
2023-08-11T17:36:39.205Z,3.90
2023-08-11T17:39:07.421Z,2.90
2023-08-11T17:41:34.068Z,6.90
2023-08-11T17:44:00.673Z,2.90
2023-08-11T17:46:29.166Z,5.10
2023-08-11T17:48:56.478Z,5.20
2023-08-11T17:51:24.008Z,7.40
2023-08-11T17:54:03.857Z,6.40
2023-08-11T17:56:39.346Z,4.80
2023-08-11T17:59:06.405Z,6.40
2023-08-11T18:01:33.388Z,5.30
2023-08-11T18:04:07.540Z,7.60
2023-08-11T18:06:36.069Z,5.40
2023-08-11T18:09:04.766Z,4.20
2023-08-11T18:11:31.680Z,3.60
2023-08-11T18:13:58.391Z,6.10
2023-08-11T18:16:27.933Z,8.00
2023-08-11T18:21:21.755Z,12.80
2023-08-11T18:23:48.668Z,11.50
2023-08-11T18:26:17.526Z,11.20
2023-08-11T18:28:44.834Z,11.70
2023-08-11T18:31:11.692Z,8.50
2023-08-11T18:33:38.607Z,7.90
2023-08-11T18:36:05.641Z,9.70
2023-08-11T18:38:32.285Z,8.40
2023-08-11T18:40:59.164Z,10.30
2023-08-11T18:43:25.907Z,10.00
2023-08-11T18:45:52.583Z,6.40
2023-08-11T18:48:19.715Z,6.70
2023-08-11T18:50:46.683Z,9.90
2023-08-11T18:53:14.086Z,10.60
2023-08-11T18:55:40.776Z,10.50
2023-08-11T18:58:08.062Z,8.00
2023-08-11T19:00:34.756Z,6.40
2023-08-11T19:03:01.541Z,7.10
2023-08-11T19:05:28.655Z,9.20
2023-08-11T19:07:56.035Z,8.00
2023-08-11T19:10:28.705Z,6.30
2023-08-11T19:12:55.481Z,7.50
2023-08-11T19:15:22.179Z,8.00
2023-08-11T19:17:48.825Z,5.90
2023-08-11T19:20:15.552Z,4.30
2023-08-11T19:22:43.186Z,7.60
2023-08-11T19:25:11.975Z,8.00
2023-08-11T19:27:39.442Z,6.70
2023-08-11T19:30:07.566Z,5.50
2023-08-11T19:32:35.815Z,8.30
2023-08-11T19:35:04.161Z,14.50
2023-08-11T19:37:30.888Z,9.40
2023-08-11T19:39:57.622Z,7.30
2023-08-11T19:42:24.421Z,10.80
2023-08-11T19:44:51.205Z,9.20
2023-08-11T19:47:17.839Z,11.10
2023-08-11T19:49:44.510Z,9.50
2023-08-11T19:52:12.044Z,9.60
2023-08-11T19:54:39.084Z,13.50
2023-08-11T19:57:05.955Z,11.00
2023-08-11T19:59:32.646Z,12.20
2023-08-11T20:01:59.371Z,9.20
2023-08-11T20:04:28.415Z,14.70
2023-08-11T20:06:55.333Z,15.10
2023-08-11T20:09:23.480Z,12.50
2023-08-11T20:11:51.503Z,15.20
2023-08-11T20:14:19.817Z,7.80
2023-08-11T20:16:51.461Z,11.30
2023-08-11T20:19:19.479Z,11.50
2023-08-11T20:21:46.456Z,14.40
2023-08-11T20:24:13.203Z,12.80
2023-08-11T20:26:39.844Z,12.20
2023-08-11T20:29:06.909Z,9.80
2023-08-11T20:31:34.207Z,13.10
2023-08-11T20:34:01.458Z,14.30
2023-08-11T20:36:28.613Z,15.60
2023-08-11T20:38:55.222Z,17.50
2023-08-11T20:41:21.863Z,17.50
2023-08-11T20:43:49.646Z,22.60
2023-08-11T20:46:16.882Z,29.50
2023-08-11T20:48:43.622Z,28.10
2023-08-11T20:51:12.873Z,24.90
2023-08-11T20:53:40.046Z,29.00
2023-08-11T20:56:06.710Z,21.10
2023-08-11T20:58:33.550Z,23.90
2023-08-11T21:01:00.521Z,24.40
2023-08-11T21:03:27.435Z,21.40
2023-08-11T21:05:54.928Z,29.90
2023-08-11T21:08:22.315Z,25.70
2023-08-11T21:10:49.118Z,25.40
2023-08-11T21:13:16.000Z,25.50
2023-08-11T21:15:42.656Z,27.80
2023-08-11T21:18:10.799Z,31.80
2023-08-11T21:20:38.341Z,31.70
2023-08-11T21:23:06.287Z,25.20
2023-08-11T21:25:33.247Z,27.50
2023-08-11T21:28:00.319Z,28.90
2023-08-11T21:30:27.007Z,27.30
2023-08-11T21:32:53.779Z,33.60
2023-08-11T21:35:21.335Z,24.00
2023-08-11T21:37:48.951Z,35.80
2023-08-11T21:40:15.712Z,28.20
2023-08-11T21:42:42.766Z,25.90
2023-08-11T21:45:10.869Z,34.00
2023-08-11T21:47:37.486Z,36.20
2023-08-11T21:50:04.477Z,33.30
2023-08-11T21:52:31.111Z,33.40
2023-08-11T21:54:57.738Z,32.80
2023-08-11T21:57:24.401Z,33.90
2023-08-11T21:59:51.100Z,27.50
2023-08-11T22:02:17.959Z,28.50
2023-08-11T22:04:46.448Z,29.40
2023-08-11T22:07:14.058Z,28.50
2023-08-11T22:09:40.961Z,28.40
2023-08-11T22:12:07.780Z,24.90
2023-08-11T22:14:35.124Z,26.30
2023-08-11T22:17:01.757Z,25.50
2023-08-11T22:19:30.489Z,25.10
2023-08-11T22:21:57.815Z,26.10
2023-08-11T22:24:38.550Z,27.00
2023-08-11T22:27:08.143Z,28.50
2023-08-11T22:29:34.791Z,30.00
2023-08-11T22:32:02.194Z,29.00
2023-08-11T22:34:28.812Z,28.10
2023-08-11T22:36:56.213Z,21.90
2023-08-11T22:39:22.954Z,23.50
2023-08-11T22:41:49.560Z,26.60
2023-08-11T22:44:16.233Z,24.00
2023-08-11T22:46:43.403Z,23.60
2023-08-11T22:49:10.114Z,23.80
2023-08-11T22:51:36.754Z,23.30
2023-08-11T22:54:03.499Z,23.60
2023-08-11T22:56:30.132Z,24.60
2023-08-11T22:58:56.790Z,28.50
2023-08-11T23:01:23.456Z,27.80
2023-08-11T23:03:50.199Z,22.80
2023-08-11T23:06:16.993Z,20.30
2023-08-11T23:08:43.709Z,21.50
2023-08-11T23:11:10.318Z,31.40
2023-08-11T23:13:36.955Z,28.50
2023-08-11T23:16:04.271Z,42.10
2023-08-11T23:18:31.111Z,27.50
2023-08-11T23:20:57.778Z,24.90
2023-08-11T23:23:24.411Z,25.60
2023-08-11T23:25:51.249Z,23.40
2023-08-11T23:28:18.591Z,25.30
2023-08-11T23:30:45.231Z,26.30
2023-08-11T23:33:13.087Z,25.90
2023-08-11T23:35:40.147Z,22.00
2023-08-11T23:38:08.411Z,24.30
2023-08-11T23:40:35.060Z,17.20
2023-08-11T23:43:02.964Z,17.10
2023-08-11T23:45:30.734Z,16.10
2023-08-11T23:47:57.898Z,16.10
2023-08-11T23:50:24.970Z,15.00
2023-08-11T23:52:51.557Z,20.50
2023-08-11T23:55:18.187Z,17.20
2023-08-11T23:57:44.808Z,16.10
